Time;durP1;ratioP1;P1;durP2;ratioP2;P2;SDS_P1;SDS_P2;PMS_P1;PMS_P2;Temp;Humidity;BMP_temperature;BMP_pressure;BME280_temperature;BME280_humidity;BME280_pressure;Samples;Min_cycle;Max_cycle;Signal;HPM_P1;HPM_P2
2024/01/31 00:01:39;;;;;;;2.65;1.70;;;5.80;99.90;;;;;;5035582;28;20064;-66
2024/01/31 00:04:05;;;;;;;10.32;2.33;;;5.90;99.90;;;;;;5049066;28;20044;-65
2024/01/31 00:06:31;;;;;;;7.72;1.95;;;5.80;99.90;;;;;;5034426;28;20068;-66
2024/01/31 00:08:57;;;;;;;3.10;1.60;;;5.80;99.90;;;;;;5031479;28;20084;-65
2024/01/31 00:11:25;;;;;;;8.10;2.00;;;5.90;99.90;;;;;;5025229;28;20049;-67
2024/01/31 00:13:51;;;;;;;5.40;1.80;;;5.80;99.90;;;;;;5039477;28;20403;-64
2024/01/31 00:16:17;;;;;;;5.53;1.90;;;5.70;99.90;;;;;;5033377;28;20063;-67
2024/01/31 00:18:43;;;;;;;6.72;2.10;;;5.70;99.90;;;;;;5034341;28;20166;-65
2024/01/31 00:21:08;;;;;;;13.18;2.60;;;5.60;99.90;;;;;;5044520;28;20071;-66
2024/01/31 00:23:34;;;;;;;9.27;1.90;;;5.60;99.90;;;;;;5041860;28;20551;-64
2024/01/31 00:25:59;;;;;;;7.45;1.90;;;5.60;99.90;;;;;;5038681;28;20036;-67
2024/01/31 00:28:25;;;;;;;11.70;1.90;;;5.60;99.90;;;;;;5049294;28;20029;-64
2024/01/31 00:30:51;;;;;;;5.50;2.08;;;5.60;99.90;;;;;;5033124;28;20073;-66
2024/01/31 00:33:16;;;;;;;6.22;1.88;;;5.70;99.90;;;;;;5049923;28;20131;-66
2024/01/31 00:35:42;;;;;;;7.00;1.88;;;5.80;99.90;;;;;;5044700;28;20044;-66
2024/01/31 00:38:08;;;;;;;9.05;1.88;;;5.70;99.90;;;;;;5041004;28;20038;-66
2024/01/31 00:40:33;;;;;;;8.27;1.88;;;5.70;99.90;;;;;;5032792;28;20403;-65
2024/01/31 00:42:59;;;;;;;4.05;1.70;;;5.80;99.90;;;;;;5037114;28;20025;-64
2024/01/31 00:45:24;;;;;;;9.57;1.80;;;5.70;99.90;;;;;;5048797;28;20676;-64
2024/01/31 00:47:50;;;;;;;6.05;1.50;;;5.70;99.90;;;;;;5032588;28;20041;-64
2024/01/31 00:50:15;;;;;;;5.60;1.70;;;5.80;99.90;;;;;;5035942;28;20044;-67
2024/01/31 00:52:41;;;;;;;4.57;1.60;;;5.80;99.90;;;;;;5041931;28;20045;-64
2024/01/31 00:55:08;;;;;;;6.13;1.67;;;5.80;99.90;;;;;;5037109;28;20038;-65
2024/01/31 00:57:33;;;;;;;9.23;1.90;;;5.70;99.90;;;;;;5029845;28;20033;-68
2024/01/31 01:00:00;;;;;;;4.72;1.30;;;5.70;99.90;;;;;;5021607;28;20091;-66
2024/01/31 01:02:26;;;;;;;7.65;1.65;;;5.70;99.90;;;;;;5042841;28;20091;-66
2024/01/31 01:04:52;;;;;;;6.05;1.75;;;5.70;99.90;;;;;;5032240;28;20492;-68
2024/01/31 01:07:18;;;;;;;4.90;1.63;;;5.70;99.90;;;;;;5029530;28;20124;-68
2024/01/31 01:09:43;;;;;;;6.55;1.70;;;5.70;99.90;;;;;;5047965;28;20116;-65
2024/01/31 01:12:09;;;;;;;7.70;2.10;;;5.70;99.90;;;;;;5026606;28;20047;-66
2024/01/31 01:14:34;;;;;;;5.65;1.70;;;5.70;99.90;;;;;;5032334;28;20123;-67
2024/01/31 01:17:00;;;;;;;4.93;1.83;;;5.70;99.90;;;;;;5041419;28;20039;-67
2024/01/31 01:19:26;;;;;;;4.95;1.90;;;5.70;99.90;;;;;;5041728;28;20112;-66
2024/01/31 01:21:51;;;;;;;9.95;2.97;;;5.70;99.90;;;;;;5032432;28;20034;-66
2024/01/31 01:24:17;;;;;;;4.13;1.80;;;5.70;99.90;;;;;;5030541;28;20041;-67
2024/01/31 01:26:42;;;;;;;4.38;1.85;;;5.70;99.90;;;;;;5027196;28;20037;-67
2024/01/31 01:29:09;;;;;;;8.88;2.30;;;5.70;99.90;;;;;;5044221;28;20071;-66
2024/01/31 01:31:34;;;;;;;7.03;1.90;;;5.70;99.90;;;;;;5034971;28;20040;-66
2024/01/31 01:34:00;;;;;;;6.55;1.90;;;5.70;99.90;;;;;;5041877;28;20118;-67
2024/01/31 01:36:26;;;;;;;9.93;2.30;;;5.70;99.90;;;;;;5039450;28;20103;-69
2024/01/31 01:38:51;;;;;;;5.53;2.00;;;5.70;99.90;;;;;;5014246;28;20037;-68
2024/01/31 01:41:17;;;;;;;8.15;1.98;;;5.70;99.90;;;;;;5040472;28;20033;-66
2024/01/31 01:43:43;;;;;;;10.27;1.60;;;5.70;99.90;;;;;;5047083;28;20574;-66
2024/01/31 01:46:14;;;;;;;6.43;1.80;;;5.60;99.90;;;;;;5013821;28;20043;-67
2024/01/31 01:48:40;;;;;;;4.82;1.90;;;5.60;99.90;;;;;;5030108;28;20049;-68
2024/01/31 01:51:06;;;;;;;4.97;1.70;;;5.60;99.90;;;;;;5040311;28;20034;-66
2024/01/31 01:53:35;;;;;;;6.15;1.80;;;5.60;99.90;;;;;;5038972;28;20430;-68
2024/01/31 01:56:04;;;;;;;8.52;1.80;;;5.60;99.90;;;;;;5031605;28;20033;-66
2024/01/31 01:58:32;;;;;;;8.05;1.95;;;5.60;99.90;;;;;;5036497;28;20126;-68
2024/01/31 02:01:00;;;;;;;10.52;1.80;;;5.50;99.90;;;;;;5006327;28;20041;-68
2024/01/31 02:03:30;;;;;;;5.03;1.80;;;5.50;99.90;;;;;;5030754;28;20049;-66
2024/01/31 02:06:02;;;;;;;4.20;1.50;;;5.50;99.90;;;;;;5030471;28;20470;-67
2024/01/31 02:08:28;;;;;;;3.70;1.52;;;5.50;99.90;;;;;;5040064;28;20033;-68
2024/01/31 02:10:55;;;;;;;6.65;1.73;;;5.50;99.90;;;;;;5024942;28;20044;-66
2024/01/31 02:13:21;;;;;;;8.88;1.55;;;5.40;99.90;;;;;;5051003;28;20041;-66
2024/01/31 02:16:05;;;;;;;9.10;1.70;;;5.40;99.90;;;;;;5044016;28;20035;-68
2024/01/31 02:18:30;;;;;;;3.85;1.45;;;5.40;99.90;;;;;;5039653;28;20049;-66
2024/01/31 02:20:56;;;;;;;3.08;1.20;;;5.40;99.90;;;;;;5013397;28;20044;-68
2024/01/31 02:23:22;;;;;;;3.22;1.40;;;5.40;99.90;;;;;;5034883;28;20037;-66
2024/01/31 02:25:48;;;;;;;4.97;1.50;;;5.30;99.90;;;;;;5045816;28;20083;-66
2024/01/31 02:28:14;;;;;;;8.20;1.48;;;5.30;99.90;;;;;;5030431;28;20488;-66
2024/01/31 02:30:39;;;;;;;4.75;1.35;;;5.40;99.90;;;;;;5031283;28;20041;-66
2024/01/31 02:33:05;;;;;;;5.53;1.60;;;5.30;99.90;;;;;;5040339;28;20032;-66
2024/01/31 02:35:33;;;;;;;2.80;1.50;;;5.40;99.90;;;;;;5048268;28;20097;-68
2024/01/31 02:37:58;;;;;;;3.88;1.60;;;5.40;99.90;;;;;;5030569;28;20180;-68
2024/01/31 02:40:24;;;;;;;5.80;1.70;;;5.40;99.90;;;;;;5035466;28;20540;-66
2024/01/31 02:42:50;;;;;;;7.95;1.70;;;5.40;99.90;;;;;;5044736;28;20029;-68
2024/01/31 02:45:15;;;;;;;7.75;1.50;;;5.40;99.90;;;;;;5030785;28;20041;-65
2024/01/31 02:47:41;;;;;;;6.65;1.73;;;5.40;99.90;;;;;;5030811;28;20176;-66
2024/01/31 02:50:07;;;;;;;4.22;2.05;;;5.40;99.90;;;;;;5038419;28;20398;-66
2024/01/31 02:52:33;;;;;;;4.15;1.60;;;5.40;99.90;;;;;;5041725;28;20069;-67
2024/01/31 02:54:58;;;;;;;4.10;1.55;;;5.40;99.90;;;;;;5012900;28;20045;-68
2024/01/31 02:57:24;;;;;;;6.50;1.80;;;5.40;99.90;;;;;;5032543;28;20044;-66
2024/01/31 02:59:50;;;;;;;3.97;1.60;;;5.40;99.90;;;;;;5041412;28;20037;-66
2024/01/31 03:02:17;;;;;;;3.40;1.60;;;5.40;99.90;;;;;;5030593;28;20048;-67
2024/01/31 03:04:43;;;;;;;3.60;1.60;;;5.40;99.90;;;;;;5030598;28;20061;-66
2024/01/31 03:07:10;;;;;;;6.93;1.50;;;5.40;99.90;;;;;;5035634;28;20032;-66
2024/01/31 03:09:35;;;;;;;5.93;1.50;;;5.40;99.90;;;;;;5038813;28;20041;-68
2024/01/31 03:12:04;;;;;;;7.22;1.65;;;5.40;99.90;;;;;;5029933;28;20484;-69
2024/01/31 03:14:33;;;;;;;8.30;1.50;;;5.40;99.90;;;;;;5043722;28;20572;-68
2024/01/31 03:16:58;;;;;;;5.38;1.50;;;5.40;99.90;;;;;;5038180;28;20480;-66
2024/01/31 03:19:24;;;;;;;7.43;1.65;;;5.50;99.90;;;;;;5030368;28;20215;-66
2024/01/31 03:21:50;;;;;;;6.22;1.50;;;5.40;99.90;;;;;;5032486;28;20032;-66
2024/01/31 03:24:16;;;;;;;3.55;1.33;;;5.40;99.90;;;;;;5035123;28;20087;-69
2024/01/31 03:26:41;;;;;;;7.22;1.45;;;5.40;99.90;;;;;;5041879;28;20471;-69
2024/01/31 03:29:07;;;;;;;3.40;1.30;;;5.50;99.90;;;;;;5032807;28;20049;-67
2024/01/31 03:31:33;;;;;;;5.40;1.50;;;5.50;99.90;;;;;;5049937;28;20083;-68
2024/01/31 03:33:59;;;;;;;3.35;1.40;;;5.40;99.90;;;;;;5039196;28;20022;-68
2024/01/31 03:36:24;;;;;;;7.70;1.40;;;5.40;99.90;;;;;;5034266;28;20496;-66
2024/01/31 03:38:50;;;;;;;2.80;1.10;;;5.40;99.90;;;;;;5033301;28;20121;-67
2024/01/31 03:41:15;;;;;;;5.07;1.42;;;5.40;99.90;;;;;;5050119;28;20061;-67
2024/01/31 03:43:41;;;;;;;4.38;1.13;;;5.50;99.90;;;;;;5041879;28;20577;-69
2024/01/31 03:46:07;;;;;;;2.78;1.25;;;5.50;99.90;;;;;;5032492;28;20041;-69
2024/01/31 03:48:33;;;;;;;3.78;1.20;;;5.50;99.90;;;;;;5044105;28;20029;-66
2024/01/31 03:50:59;;;;;;;2.42;1.35;;;5.40;99.90;;;;;;5039593;28;20045;-67
2024/01/31 03:53:25;;;;;;;5.80;1.30;;;5.40;99.90;;;;;;5033599;28;20527;-66
2024/01/31 03:55:51;;;;;;;5.68;1.40;;;5.40;99.90;;;;;;5033561;28;20039;-66
2024/01/31 03:58:17;;;;;;;4.25;1.33;;;5.40;99.90;;;;;;5043653;28;20040;-67
2024/01/31 04:00:43;;;;;;;6.60;1.63;;;5.40;99.90;;;;;;5033873;28;20037;-68
2024/01/31 04:03:09;;;;;;;3.50;1.60;;;5.40;99.90;;;;;;5030136;28;20083;-68
2024/01/31 04:05:35;;;;;;;5.68;1.00;;;5.30;99.90;;;;;;5038510;28;20041;-68
2024/01/31 04:08:01;;;;;;;1.92;1.17;;;5.30;99.90;;;;;;5038694;28;20041;-66
2024/01/31 04:10:27;;;;;;;7.25;1.17;;;5.30;99.90;;;;;;5033327;28;20037;-66
2024/01/31 04:12:52;;;;;;;5.68;1.17;;;5.20;99.90;;;;;;5034152;28;20112;-67
2024/01/31 04:15:18;;;;;;;1.67;0.82;;;5.20;99.90;;;;;;5044792;28;20483;-68
2024/01/31 04:17:44;;;;;;;2.83;1.10;;;5.20;99.90;;;;;;5033357;28;20044;-66
2024/01/31 04:20:11;;;;;;;2.13;0.80;;;5.20;99.90;;;;;;5033152;28;20065;-68
2024/01/31 04:22:37;;;;;;;4.22;1.10;;;5.10;99.90;;;;;;5048431;28;20033;-68
2024/01/31 04:25:04;;;;;;;2.22;1.20;;;5.10;99.90;;;;;;5032903;28;20620;-68
2024/01/31 04:27:29;;;;;;;2.13;1.13;;;5.10;99.90;;;;;;5032269;28;20041;-68
2024/01/31 04:29:55;;;;;;;4.38;1.20;;;5.10;99.90;;;;;;5019684;28;20091;-69
2024/01/31 04:32:23;;;;;;;1.00;0.88;;;5.10;99.90;;;;;;5039871;28;20531;-68
2024/01/31 04:34:48;;;;;;;5.97;1.48;;;5.10;99.90;;;;;;5033315;28;20443;-69
2024/01/31 04:37:14;;;;;;;6.18;1.30;;;5.10;99.90;;;;;;5037587;28;20045;-68
2024/01/31 04:39:40;;;;;;;1.48;1.10;;;5.10;99.90;;;;;;5048880;28;20442;-67
2024/01/31 04:42:05;;;;;;;3.08;1.20;;;5.10;99.90;;;;;;5032848;28;20041;-65
2024/01/31 04:44:31;;;;;;;3.60;1.17;;;5.10;99.90;;;;;;5032745;28;20042;-66
2024/01/31 04:46:56;;;;;;;3.03;1.40;;;5.10;99.90;;;;;;5034621;28;20039;-66
2024/01/31 04:49:22;;;;;;;3.67;1.25;;;5.10;99.90;;;;;;5043682;28;20491;-68
2024/01/31 04:51:47;;;;;;;7.47;1.60;;;5.10;99.90;;;;;;5032714;28;20083;-66
2024/01/31 04:54:13;;;;;;;5.28;1.48;;;5.10;99.90;;;;;;5037897;28;20076;-68
2024/01/31 04:56:38;;;;;;;6.45;1.75;;;5.10;99.90;;;;;;5046797;28;20071;-69
2024/01/31 04:59:04;;;;;;;4.05;1.70;;;5.10;99.90;;;;;;5032845;28;20041;-67
2024/01/31 05:01:29;;;;;;;2.47;1.40;;;5.10;99.90;;;;;;5036249;28;20048;-68
2024/01/31 05:03:57;;;;;;;2.78;1.35;;;5.10;99.90;;;;;;5045570;28;20069;-66
2024/01/31 05:06:23;;;;;;;10.65;2.08;;;5.10;99.90;;;;;;5036773;28;20081;-67
2024/01/31 05:08:49;;;;;;;6.25;1.70;;;5.10;99.90;;;;;;5046976;28;20112;-68
2024/01/31 05:11:14;;;;;;;2.53;1.40;;;5.20;99.90;;;;;;5021823;28;20037;-68
2024/01/31 05:13:40;;;;;;;7.47;1.80;;;5.20;99.90;;;;;;5040280;28;20057;-66
2024/01/31 05:16:09;;;;;;;5.80;1.67;;;5.20;99.90;;;;;;5014935;28;20048;-66
2024/01/31 05:18:35;;;;;;;3.78;1.65;;;5.20;99.90;;;;;;5041965;28;20110;-68
2024/01/31 05:21:01;;;;;;;6.70;1.63;;;5.20;99.90;;;;;;5023794;28;20033;-67
2024/01/31 05:23:27;;;;;;;3.70;1.60;;;5.20;99.90;;;;;;5031892;28;20469;-66
2024/01/31 05:25:53;;;;;;;7.15;2.30;;;5.20;99.90;;;;;;5019312;28;20083;-66
2024/01/31 05:28:19;;;;;;;6.03;2.03;;;5.20;99.90;;;;;;5042792;28;20120;-68
2024/01/31 05:30:44;;;;;;;6.63;1.88;;;5.20;99.90;;;;;;5039457;28;20392;-66
2024/01/31 05:33:11;;;;;;;2.97;1.60;;;5.20;99.90;;;;;;5048107;28;20550;-66
2024/01/31 05:35:37;;;;;;;9.10;1.90;;;5.20;99.90;;;;;;5047307;28;20124;-69
2024/01/31 05:38:03;;;;;;;6.70;1.90;;;5.20;99.90;;;;;;5045925;28;20175;-69
2024/01/31 05:40:29;;;;;;;7.30;2.15;;;5.20;99.90;;;;;;5041404;28;20037;-66
2024/01/31 05:42:56;;;;;;;7.30;2.30;;;5.20;99.90;;;;;;5031419;28;20038;-68
2024/01/31 05:45:22;;;;;;;8.77;2.17;;;5.20;99.90;;;;;;5041091;28;20036;-67
2024/01/31 05:47:47;;;;;;;8.45;2.50;;;5.20;99.90;;;;;;5038672;28;20038;-69
2024/01/31 05:50:13;;;;;;;7.22;2.67;;;5.20;99.90;;;;;;5014564;28;20045;-68
2024/01/31 05:52:38;;;;;;;8.57;2.53;;;5.30;99.90;;;;;;5046846;28;20394;-66
2024/01/31 05:55:04;;;;;;;7.93;2.30;;;5.30;99.90;;;;;;5044258;28;20038;-66
2024/01/31 05:57:30;;;;;;;4.53;2.50;;;5.20;99.90;;;;;;5032753;28;20044;-68
2024/01/31 05:59:55;;;;;;;6.25;2.30;;;5.20;99.90;;;;;;5037211;28;20022;-69
2024/01/31 06:02:21;;;;;;;6.50;2.50;;;5.20;99.90;;;;;;5032391;28;20732;-69
2024/01/31 06:04:46;;;;;;;5.97;2.30;;;5.20;99.90;;;;;;5038331;28;20427;-68
2024/01/31 06:07:12;;;;;;;11.63;2.50;;;5.20;99.90;;;;;;5027744;28;20046;-67
2024/01/31 06:09:38;;;;;;;7.07;2.75;;;5.20;99.90;;;;;;5042677;28;20037;-68
2024/01/31 06:12:05;;;;;;;4.65;2.50;;;5.20;99.90;;;;;;5041092;28;20037;-68
2024/01/31 06:14:31;;;;;;;8.13;2.55;;;5.20;99.90;;;;;;5037846;28;20049;-66
2024/01/31 06:16:57;;;;;;;6.18;2.35;;;5.30;99.90;;;;;;5034364;28;20033;-69
2024/01/31 06:19:23;;;;;;;10.88;2.72;;;5.30;99.90;;;;;;5046413;28;20044;-67
2024/01/31 06:21:49;;;;;;;8.93;2.80;;;5.30;99.90;;;;;;5030350;28;20144;-67
2024/01/31 06:24:15;;;;;;;7.40;2.60;;;5.20;99.90;;;;;;5026483;28;20402;-69
2024/01/31 06:26:41;;;;;;;9.32;2.78;;;5.30;99.90;;;;;;5032048;28;20399;-67
2024/01/31 06:29:08;;;;;;;6.07;2.67;;;5.20;99.90;;;;;;5034605;28;20519;-69
2024/01/31 06:31:40;;;;;;;6.82;2.83;;;5.20;99.90;;;;;;5021417;28;20049;-67
2024/01/31 06:34:06;;;;;;;6.82;2.85;;;5.20;99.90;;;;;;5022320;28;20060;-67
2024/01/31 06:36:32;;;;;;;8.20;2.83;;;5.30;99.90;;;;;;5042188;28;20115;-67
2024/01/31 06:38:59;;;;;;;9.13;3.10;;;5.30;99.90;;;;;;5012705;28;20614;-67
2024/01/31 06:41:25;;;;;;;8.85;3.03;;;5.20;99.90;;;;;;5012660;28;20081;-67
2024/01/31 06:43:50;;;;;;;7.95;3.33;;;5.30;99.90;;;;;;5040574;28;20072;-67
2024/01/31 06:46:16;;;;;;;6.97;3.20;;;5.30;99.90;;;;;;5040822;28;20474;-68
2024/01/31 06:48:41;;;;;;;7.43;3.33;;;5.30;99.90;;;;;;5037699;28;20080;-68
2024/01/31 06:51:08;;;;;;;9.27;3.22;;;5.20;99.90;;;;;;5027650;28;20029;-68
2024/01/31 06:53:33;;;;;;;6.40;3.35;;;5.20;99.90;;;;;;5045010;28;20075;-68
2024/01/31 06:56:00;;;;;;;7.10;3.15;;;5.30;99.90;;;;;;5028956;28;20033;-67
2024/01/31 06:58:26;;;;;;;5.72;3.20;;;5.30;99.90;;;;;;5029968;28;20104;-68
2024/01/31 07:00:55;;;;;;;8.52;3.05;;;5.30;99.90;;;;;;5041222;28;20032;-67
2024/01/31 07:03:20;;;;;;;7.78;3.40;;;5.30;99.90;;;;;;5030974;28;20084;-69
2024/01/31 07:05:46;;;;;;;8.23;3.25;;;5.30;99.90;;;;;;5019842;28;20118;-67
2024/01/31 07:08:11;;;;;;;7.13;3.00;;;5.30;99.90;;;;;;5044921;28;20576;-67
2024/01/31 07:10:37;;;;;;;6.88;2.90;;;5.40;99.90;;;;;;5023274;28;20573;-67
2024/01/31 07:13:03;;;;;;;8.02;3.00;;;5.40;99.90;;;;;;5038878;28;20036;-67
2024/01/31 07:15:28;;;;;;;7.03;2.50;;;5.40;99.90;;;;;;5032191;28;20132;-67
2024/01/31 07:17:54;;;;;;;10.98;3.22;;;5.40;99.90;;;;;;5035665;28;20072;-67
2024/01/31 07:20:19;;;;;;;9.88;3.25;;;5.40;99.90;;;;;;5035230;28;20655;-68
2024/01/31 07:22:45;;;;;;;6.70;3.35;;;5.50;99.90;;;;;;5028920;28;20523;-68
2024/01/31 07:25:13;;;;;;;6.88;3.20;;;5.40;99.90;;;;;;5027796;28;20029;-68
2024/01/31 07:27:40;;;;;;;5.00;3.33;;;5.40;99.90;;;;;;5032229;28;20045;-66
2024/01/31 07:30:10;;;;;;;8.73;3.78;;;5.40;99.90;;;;;;5035397;28;20055;-68
2024/01/31 07:32:36;;;;;;;7.32;3.72;;;5.40;99.90;;;;;;5042205;28;20052;-67
2024/01/31 07:35:03;;;;;;;9.23;4.32;;;5.40;99.90;;;;;;5029179;28;20509;-69
2024/01/31 07:37:28;;;;;;;9.45;4.80;;;5.50;99.90;;;;;;5047668;28;20295;-69
2024/01/31 07:39:56;;;;;;;9.55;4.75;;;5.50;99.90;;;;;;5033150;28;20717;-68
2024/01/31 07:42:22;;;;;;;12.13;4.80;;;5.50;99.90;;;;;;5031688;28;20044;-69
2024/01/31 07:44:47;;;;;;;10.25;4.80;;;5.50;99.90;;;;;;5023394;28;20033;-69
2024/01/31 07:47:13;;;;;;;6.72;4.55;;;5.50;99.90;;;;;;5032605;28;20128;-65
2024/01/31 07:49:41;;;;;;;9.02;5.00;;;5.50;99.90;;;;;;5024909;28;20063;-67
2024/01/31 07:52:06;;;;;;;10.55;5.05;;;5.50;99.90;;;;;;5034948;28;20044;-68
2024/01/31 07:54:32;;;;;;;11.95;5.10;;;5.50;99.90;;;;;;5034986;28;20041;-68
2024/01/31 07:56:57;;;;;;;11.70;5.18;;;5.40;99.90;;;;;;5035084;28;20038;-68
2024/01/31 07:59:23;;;;;;;10.93;4.80;;;5.50;99.90;;;;;;5020354;28;20036;-67
2024/01/31 08:01:48;;;;;;;11.52;4.82;;;5.50;99.90;;;;;;5034183;28;20048;-69
2024/01/31 08:04:14;;;;;;;11.95;5.43;;;5.40;99.90;;;;;;5030347;28;20064;-69
2024/01/31 08:06:43;;;;;;;11.43;5.47;;;5.40;99.90;;;;;;5019182;28;20037;-68
2024/01/31 08:09:09;;;;;;;10.40;5.20;;;5.40;99.90;;;;;;5041399;28;20034;-68
2024/01/31 08:11:41;;;;;;;10.23;5.43;;;5.40;99.90;;;;;;5040587;28;20151;-65
2024/01/31 08:14:07;;;;;;;9.30;5.82;;;5.40;99.90;;;;;;5023415;28;20072;-69
2024/01/31 08:16:32;;;;;;;14.30;6.28;;;5.40;99.90;;;;;;5049637;28;20479;-69
2024/01/31 08:18:58;;;;;;;13.27;5.50;;;5.40;99.90;;;;;;5015005;28;20072;-68
2024/01/31 08:21:23;;;;;;;13.00;5.57;;;5.40;99.90;;;;;;5014951;28;20495;-67
2024/01/31 08:23:50;;;;;;;9.20;5.10;;;5.40;99.90;;;;;;5050787;28;20446;-69
2024/01/31 08:26:18;;;;;;;12.73;5.60;;;5.50;99.90;;;;;;5044020;28;20052;-69
2024/01/31 08:28:44;;;;;;;13.70;5.25;;;5.50;99.90;;;;;;5032383;28;20063;-68
2024/01/31 08:31:10;;;;;;;11.13;4.90;;;5.50;99.90;;;;;;5036838;28;20132;-68
2024/01/31 08:33:35;;;;;;;8.50;4.60;;;5.60;99.90;;;;;;5048465;28;20499;-69
2024/01/31 08:36:01;;;;;;;12.25;5.00;;;5.60;99.90;;;;;;5032097;28;20045;-68
2024/01/31 08:38:26;;;;;;;11.32;5.45;;;5.60;99.90;;;;;;5032462;28;20108;-69
2024/01/31 08:40:52;;;;;;;9.43;5.10;;;5.60;99.90;;;;;;5017009;28;20029;-68
2024/01/31 08:43:17;;;;;;;13.00;5.97;;;5.60;99.90;;;;;;5046793;28;20037;-67
2024/01/31 08:45:43;;;;;;;10.65;5.25;;;5.60;99.90;;;;;;5014341;28;20038;-67
2024/01/31 08:48:10;;;;;;;13.57;5.35;;;5.60;99.90;;;;;;5045571;28;20115;-69
2024/01/31 08:50:35;;;;;;;10.38;5.63;;;5.70;99.90;;;;;;5039880;28;20056;-67
2024/01/31 08:53:01;;;;;;;9.85;5.60;;;5.70;99.90;;;;;;5031502;28;20049;-68
2024/01/31 08:55:26;;;;;;;10.07;5.18;;;5.70;99.90;;;;;;5037717;28;20064;-69
2024/01/31 08:57:52;;;;;;;11.27;5.72;;;5.70;99.90;;;;;;5036493;28;20041;-69
2024/01/31 09:00:18;;;;;;;11.25;5.35;;;5.70;99.90;;;;;;5031700;28;20076;-68
2024/01/31 09:02:44;;;;;;;12.55;6.00;;;5.70;99.90;;;;;;5038465;28;20491;-68
2024/01/31 09:05:10;;;;;;;11.15;5.30;;;5.70;99.90;;;;;;5048613;28;20039;-69
2024/01/31 09:07:36;;;;;;;16.35;6.28;;;5.80;99.90;;;;;;5044863;28;20511;-68
2024/01/31 09:10:03;;;;;;;10.93;5.35;;;5.80;99.90;;;;;;5042559;28;20119;-68
2024/01/31 09:12:29;;;;;;;11.43;5.40;;;5.80;99.90;;;;;;5034273;28;20029;-68
2024/01/31 09:14:55;;;;;;;11.60;5.10;;;5.90;99.90;;;;;;5024514;28;20045;-69
2024/01/31 09:17:21;;;;;;;11.93;5.50;;;5.90;99.90;;;;;;5027445;28;20451;-68
2024/01/31 09:19:46;;;;;;;11.60;4.90;;;6.00;99.90;;;;;;5039300;28;20033;-69
2024/01/31 09:22:12;;;;;;;14.77;5.70;;;6.00;99.90;;;;;;5030424;28;20431;-69
2024/01/31 09:24:38;;;;;;;9.05;5.18;;;6.10;99.90;;;;;;5027293;28;20069;-67
2024/01/31 09:27:04;;;;;;;11.70;4.80;;;6.10;99.90;;;;;;5035534;28;20395;-67
2024/01/31 09:29:29;;;;;;;12.38;5.47;;;6.10;99.90;;;;;;5031802;28;20535;-69
2024/01/31 09:31:55;;;;;;;13.98;5.55;;;6.20;99.90;;;;;;5033228;28;20044;-69
2024/01/31 09:34:20;;;;;;;9.35;5.43;;;6.20;99.90;;;;;;5047867;28;20033;-69
2024/01/31 09:36:46;;;;;;;10.18;4.80;;;6.30;99.90;;;;;;5039755;28;20051;-68
2024/01/31 09:39:12;;;;;;;11.15;4.97;;;6.30;99.90;;;;;;5028511;28;20033;-69
2024/01/31 09:41:38;;;;;;;9.25;4.60;;;6.30;99.90;;;;;;5042693;28;20033;-69
2024/01/31 09:44:04;;;;;;;12.63;5.00;;;6.30;99.90;;;;;;5038332;28;20036;-69
2024/01/31 09:46:30;;;;;;;13.85;4.40;;;6.40;99.90;;;;;;5043574;28;20030;-69
2024/01/31 09:48:56;;;;;;;9.05;4.80;;;6.40;99.90;;;;;;5043836;28;20047;-69
2024/01/31 09:51:22;;;;;;;13.52;5.40;;;6.40;99.90;;;;;;5036057;28;20287;-68
2024/01/31 09:53:59;;;;;;;10.82;5.30;;;6.40;99.90;;;;;;5015991;28;20483;-69
2024/01/31 09:56:27;;;;;;;8.77;4.68;;;6.30;99.90;;;;;;5015910;28;20173;-69
2024/01/31 09:58:55;;;;;;;9.35;4.93;;;6.30;99.90;;;;;;5020493;28;20034;-69
2024/01/31 10:01:21;;;;;;;8.93;4.72;;;6.30;99.90;;;;;;5042760;28;20116;-67
2024/01/31 10:03:47;;;;;;;8.68;4.97;;;6.40;99.90;;;;;;5045851;28;20112;-69
2024/01/31 10:06:13;;;;;;;12.73;5.75;;;6.40;99.90;;;;;;5040702;28;20120;-69
2024/01/31 10:08:38;;;;;;;8.95;4.50;;;6.40;99.90;;;;;;5033850;28;20131;-67
2024/01/31 10:11:04;;;;;;;11.65;5.68;;;6.40;99.90;;;;;;5031347;28;20037;-69
2024/01/31 10:13:29;;;;;;;10.00;5.45;;;6.40;99.90;;;;;;5039157;28;20056;-68
2024/01/31 10:15:55;;;;;;;8.32;4.97;;;6.50;99.90;;;;;;5034688;28;20250;-67
2024/01/31 10:18:22;;;;;;;9.55;5.32;;;6.40;99.90;;;;;;5029379;28;20046;-68
2024/01/31 10:20:54;;;;;;;11.30;5.57;;;6.40;99.90;;;;;;5032641;28;20033;-68
2024/01/31 10:23:20;;;;;;;10.02;5.38;;;6.40;99.90;;;;;;5022580;28;20033;-67
2024/01/31 10:25:46;;;;;;;11.60;5.63;;;6.50;99.90;;;;;;5029317;28;20056;-68
2024/01/31 10:28:14;;;;;;;13.05;5.72;;;6.50;99.90;;;;;;5037745;28;20088;-69
2024/01/31 10:30:43;;;;;;;12.48;5.95;;;6.50;99.90;;;;;;5011986;28;20045;-67
2024/01/31 10:33:09;;;;;;;10.73;5.63;;;6.60;99.90;;;;;;5028978;28;20110;-69
2024/01/31 10:35:36;;;;;;;10.48;6.38;;;6.60;99.90;;;;;;5046290;28;20067;-69
2024/01/31 10:38:02;;;;;;;9.18;5.40;;;6.60;99.90;;;;;;5040156;28;20038;-69
2024/01/31 10:40:28;;;;;;;11.40;6.10;;;6.60;99.90;;;;;;5031138;28;20646;-69
2024/01/31 10:42:55;;;;;;;11.30;5.97;;;6.60;99.90;;;;;;5029747;28;20037;-68
2024/01/31 10:45:22;;;;;;;10.73;7.05;;;6.60;99.90;;;;;;5038705;28;20104;-69
2024/01/31 10:47:48;;;;;;;11.73;7.05;;;6.60;99.90;;;;;;5037726;28;20084;-69
2024/01/31 10:50:14;;;;;;;13.63;8.43;;;6.60;99.90;;;;;;5031316;28;20041;-69
2024/01/31 10:52:41;;;;;;;10.93;7.03;;;6.60;99.90;;;;;;5030335;28;20041;-69
2024/01/31 10:55:08;;;;;;;14.20;8.30;;;6.60;99.90;;;;;;5031424;28;20527;-69
2024/01/31 10:57:35;;;;;;;13.60;8.30;;;6.60;99.90;;;;;;5030715;28;20057;-69
2024/01/31 11:00:02;;;;;;;14.60;8.85;;;6.60;99.90;;;;;;5033929;28;20079;-67
2024/01/31 11:02:32;;;;;;;12.65;8.80;;;6.60;99.90;;;;;;5040080;28;20087;-68
2024/01/31 11:05:00;;;;;;;12.38;8.63;;;6.60;99.90;;;;;;5012827;28;20033;-68
2024/01/31 11:07:25;;;;;;;16.48;8.30;;;6.70;99.90;;;;;;5036721;28;20095;-67
2024/01/31 11:09:51;;;;;;;16.50;9.15;;;6.70;99.90;;;;;;5049849;28;20451;-70
2024/01/31 11:12:17;;;;;;;14.60;9.70;;;6.70;99.90;;;;;;5033791;28;20484;-71
2024/01/31 11:14:44;;;;;;;12.05;7.60;;;6.80;99.90;;;;;;5029604;28;20391;-69
2024/01/31 11:17:15;;;;;;;11.10;7.78;;;6.80;99.90;;;;;;5041594;28;20041;-67
2024/01/31 11:19:52;;;;;;;15.00;8.70;;;6.80;99.90;;;;;;5040915;28;20056;-67
2024/01/31 11:22:18;;;;;;;12.40;7.53;;;6.80;99.90;;;;;;5036876;28;20053;-72
2024/01/31 11:24:49;;;;;;;12.63;9.05;;;6.80;99.90;;;;;;5040852;28;20076;-67
2024/01/31 11:27:16;;;;;;;12.10;7.80;;;6.80;99.90;;;;;;5033366;28;20048;-67
2024/01/31 11:29:44;;;;;;;12.02;8.18;;;6.90;99.90;;;;;;5041627;28;20037;-68
2024/01/31 11:32:10;;;;;;;11.52;7.65;;;6.90;99.90;;;;;;5042312;28;20048;-68
2024/01/31 11:34:36;;;;;;;12.70;7.80;;;7.00;99.90;;;;;;5030614;28;20302;-69
2024/01/31 11:37:02;;;;;;;14.82;8.38;;;7.10;99.90;;;;;;5031616;28;20490;-67
2024/01/31 11:39:28;;;;;;;13.07;7.95;;;7.10;99.90;;;;;;5028659;28;20038;-67
2024/01/31 11:41:54;;;;;;;10.55;6.75;;;7.10;99.90;;;;;;5041186;28;20033;-67
2024/01/31 11:44:20;;;;;;;10.25;7.13;;;7.20;99.90;;;;;;5051683;28;20537;-68
2024/01/31 11:46:46;;;;;;;11.85;7.93;;;7.30;99.90;;;;;;5046393;28;20077;-68
2024/01/31 11:49:11;;;;;;;11.93;7.63;;;7.30;99.90;;;;;;5047094;28;20040;-67
2024/01/31 11:51:37;;;;;;;11.88;7.68;;;7.40;99.90;;;;;;5016985;28;20045;-68
2024/01/31 11:54:04;;;;;;;11.05;7.78;;;7.40;99.90;;;;;;5033525;28;20057;-67
2024/01/31 11:56:30;;;;;;;10.77;8.10;;;7.40;99.90;;;;;;5034067;28;20034;-67
2024/01/31 11:58:57;;;;;;;12.75;8.80;;;7.50;99.90;;;;;;5034387;28;20029;-68
2024/01/31 12:01:23;;;;;;;11.70;7.82;;;7.50;99.90;;;;;;5050109;28;20142;-68
2024/01/31 12:03:50;;;;;;;12.02;8.27;;;7.50;99.90;;;;;;5033555;28;20048;-67
2024/01/31 12:06:18;;;;;;;11.98;8.82;;;7.60;99.90;;;;;;5033912;28;20033;-65
2024/01/31 12:08:48;;;;;;;13.25;8.00;;;7.60;99.90;;;;;;5040101;28;20033;-69
2024/01/31 12:11:15;;;;;;;14.00;8.88;;;7.60;99.90;;;;;;5034187;28;20044;-69
2024/01/31 12:13:41;;;;;;;13.70;8.05;;;7.60;99.90;;;;;;5034411;28;20044;-68
2024/01/31 12:16:07;;;;;;;13.10;8.23;;;7.60;99.90;;;;;;5034347;28;20044;-67
2024/01/31 12:18:33;;;;;;;12.43;8.48;;;7.60;99.90;;;;;;5033542;28;20041;-70
2024/01/31 12:21:03;;;;;;;12.02;8.55;;;7.60;99.90;;;;;;5016236;28;20041;-68
2024/01/31 12:23:29;;;;;;;13.52;8.45;;;7.60;99.90;;;;;;5035708;28;20085;-68
2024/01/31 12:25:56;;;;;;;12.65;9.57;;;7.60;99.90;;;;;;5047290;28;20112;-70
2024/01/31 12:28:22;;;;;;;12.20;8.15;;;7.50;99.90;;;;;;5047403;28;20047;-68
2024/01/31 12:30:47;;;;;;;14.48;9.50;;;7.60;99.90;;;;;;5041804;28;20037;-69
2024/01/31 12:33:13;;;;;;;14.70;9.63;;;7.60;99.90;;;;;;5040761;28;20037;-68
2024/01/31 12:35:38;;;;;;;15.20;8.68;;;7.60;99.90;;;;;;5041332;28;20039;-67
2024/01/31 12:38:04;;;;;;;13.18;9.00;;;7.60;99.90;;;;;;5045243;28;20120;-67
2024/01/31 12:40:29;;;;;;;14.18;8.85;;;7.60;99.90;;;;;;5040289;28;20041;-68
2024/01/31 12:42:56;;;;;;;13.75;10.57;;;7.60;99.90;;;;;;5046163;28;20037;-67
2024/01/31 12:45:22;;;;;;;12.82;9.07;;;7.60;99.90;;;;;;5018259;28;20544;-67
2024/01/31 12:47:48;;;;;;;13.48;8.95;;;7.70;99.90;;;;;;5034171;28;20117;-67